Portada
METAR-TAF:

METAR-TAF

Aeroports :

Sainte-Marie, Madagascar

latitud: 17-05S, longitud: 049-49E, altitud: 2 m

METAR: manca

Hora: 12:52 (09:52 UTC)

Pronòstic

L'informe es va fer fa 4 hores i 52 minuts, a les 05:00 UTC
Pronòstic vàlid del 24 a les 06 UTC al 25 a les 06 UTC
Vent 8 kt del Sud-Est
Visibilitat 10 km o més
Núvols disperses a una alçada de 1700 ft
Núvols disperses a una alçada de 3300 ft
Probabilitat 40% :
Temporalment
l' 25 a les 00 UTC al 25 a les 06 UTC
Visibilitat: 4000 m
xàfecs de pluja

TAF: FMMS 240500Z 2406/2506 14008KT 9999 SCT017 SCT033 PROB40 TEMPO 2500/2506 4000 SHRA

Observacions i pronòstics meteorològics de més de 4000 aeroports (METAR i TAF).

Les estacions disponibles són els punts grocs i vermells al mapa.

Posi el ratolí al punt desitjat per veure el nom de l'estació.

Feu clic per veure les observacions i els pronòstics meteorològics.

Per canviar el mapa: feu clic els botons verds amb una creu de color negre per apropar; al botó verd amb un guió per allunyar la imatge; o en les fletxes verdes per a mapes adjacents.


METAR-TAF: